Time;durP1;ratioP1;P1;durP2;ratioP2;P2;SDS_P1;SDS_P2;PMS_P1;PMS_P2;Temp;Humidity;BMP_temperature;BMP_pressure;BME280_temperature;BME280_humidity;BME280_pressure;Samples;Min_cycle;Max_cycle;Signal;HPM_P1;HPM_P2
2022/08/11 00:02:30;;;;;;;0.70;0.20;;;23.50;99.90;;;;;;5011165;28;20432;-71
2022/08/11 00:05:04;;;;;;;0.70;0.20;;;24.00;99.90;;;;;;5011225;28;20850;-71
2022/08/11 00:07:33;;;;;;;1.03;0.93;;;23.90;99.90;;;;;;5011101;28;20516;-71
2022/08/11 00:10:02;;;;;;;0.87;0.53;;;23.90;99.90;;;;;;5011364;28;20994;-71
2022/08/11 00:12:30;;;;;;;1.00;0.20;;;22.60;99.90;;;;;;5011041;28;20472;-71
2022/08/11 00:15:01;;;;;;;0.70;0.10;;;23.80;99.90;;;;;;5011464;28;20440;-72
2022/08/11 00:17:31;;;;;;;0.70;0.10;;;23.80;99.90;;;;;;5007809;28;20538;-72
2022/08/11 00:20:04;;;;;;;0.70;0.10;;;23.80;99.90;;;;;;5010392;28;20543;-72
2022/08/11 00:22:44;;;;;;;0.70;0.10;;;23.80;99.90;;;;;;5011256;28;20459;-72
2022/08/11 00:25:14;;;;;;;0.70;0.10;;;23.80;99.90;;;;;;5011374;28;20539;-72
2022/08/11 00:27:44;;;;;;;0.90;0.23;;;23.70;99.90;;;;;;5014296;28;20440;-72
2022/08/11 00:30:14;;;;;;;0.70;0.20;;;23.70;99.90;;;;;;5014263;28;20459;-72
2022/08/11 00:32:45;;;;;;;0.70;0.13;;;23.70;99.90;;;;;;5012061;28;20488;-72
2022/08/11 00:35:16;;;;;;;0.70;0.20;;;23.70;99.90;;;;;;5011232;28;20467;-72
2022/08/11 00:38:06;;;;;;;0.70;0.10;;;23.60;99.90;;;;;;5011602;28;20461;-72
2022/08/11 00:40:41;;;;;;;1.37;1.27;;;23.60;99.90;;;;;;5010905;28;20455;-72
2022/08/11 00:43:19;;;;;;;0.70;0.20;;;23.60;99.90;;;;;;5011046;28;20547;-72
2022/08/11 00:46:08;;;;;;;0.70;0.20;;;23.50;99.90;;;;;;5010973;28;20440;-71
2022/08/11 00:48:50;;;;;;;0.70;0.10;;;23.50;99.90;;;;;;5010671;28;20433;-71
2022/08/11 00:51:28;;;;;;;0.70;0.20;;;23.50;99.90;;;;;;5010809;28;20478;-71
2022/08/11 00:54:50;;;;;;;0.80;0.40;;;23.50;99.90;;;;;;5010627;28;21006;-71
2022/08/11 00:57:53;;;;;;;0.90;0.80;;;23.50;99.90;;;;;;5013349;28;20444;-71
2022/08/11 01:00:23;;;;;;;0.70;0.20;;;23.40;99.90;;;;;;5014968;28;20870;-71
2022/08/11 01:03:18;;;;;;;0.70;0.20;;;23.30;99.90;;;;;;5015026;28;20456;-71
2022/08/11 01:05:59;;;;;;;0.70;0.20;;;23.20;99.90;;;;;;5015154;28;20552;-71
2022/08/11 01:09:18;;;;;;;0.70;0.10;;;23.20;99.90;;;;;;5015118;28;20444;-71
2022/08/11 01:12:18;;;;;;;0.70;0.20;;;23.20;99.90;;;;;;5014693;28;20448;-71
2022/08/11 01:15:39;;;;;;;0.70;0.20;;;23.20;99.90;;;;;;5014842;28;20451;-71
2022/08/11 01:18:40;;;;;;;0.70;0.20;;;23.10;99.90;;;;;;5014355;28;20440;-71
2022/08/11 01:21:53;;;;;;;0.70;0.20;;;23.10;99.90;;;;;;4981646;28;20447;-71
2022/08/11 01:25:13;;;;;;;0.70;0.20;;;22.90;99.90;;;;;;5011632;28;20518;-70
2022/08/11 01:28:25;;;;;;;0.70;0.10;;;22.80;99.90;;;;;;5011451;28;20456;-71
2022/08/11 01:31:22;;;;;;;0.70;0.20;;;22.80;99.90;;;;;;4993181;28;20448;-71
2022/08/11 01:34:37;;;;;;;0.70;0.20;;;22.70;99.90;;;;;;4992753;28;20480;-71
2022/08/11 01:37:40;;;;;;;0.70;0.20;;;22.60;99.90;;;;;;4992515;28;20448;-70
2022/08/11 01:40:47;;;;;;;0.70;0.20;;;22.60;99.90;;;;;;4997042;28;20489;-72
2022/08/11 01:46:46;;;;;;;0.70;0.20;;;22.60;99.90;;;;;;5013717;28;20444;-72
2022/08/11 01:49:23;;;;;;;0.70;0.10;;;22.60;99.90;;;;;;5013606;28;20440;-72
2022/08/11 01:52:19;;;;;;;0.70;0.20;;;22.60;99.90;;;;;;5014115;28;20452;-71
2022/08/11 01:55:12;;;;;;;0.70;0.20;;;22.60;99.90;;;;;;5013700;28;20472;-72
2022/08/11 01:57:48;;;;;;;0.70;0.20;;;22.60;99.90;;;;;;5013631;28;20436;-71
2022/08/11 02:00:20;;;;;;;0.70;0.10;;;22.60;99.90;;;;;;5012591;28;20580;-72
2022/08/11 02:02:53;;;;;;;0.70;0.10;;;22.60;99.90;;;;;;5013995;28;20485;-71
2022/08/11 02:05:31;;;;;;;0.70;0.10;;;22.60;99.90;;;;;;5013666;28;20888;-72
2022/08/11 02:08:08;;;;;;;0.70;0.20;;;22.60;99.90;;;;;;5013253;28;20949;-71
2022/08/11 02:13:41;;;;;;;0.70;0.10;;;22.60;99.90;;;;;;5013639;28;20499;-72
2022/08/11 02:16:21;;;;;;;0.70;0.20;;;22.60;99.90;;;;;;5013338;28;20837;-72
2022/08/11 02:24:43;;;;;;;0.70;0.20;;;22.50;99.90;;;;;;5012559;28;20468;-72
2022/08/11 02:27:20;;;;;;;0.70;0.20;;;22.50;99.90;;;;;;5013186;28;20444;-72
2022/08/11 02:30:03;;;;;;;0.70;0.10;;;22.50;99.90;;;;;;5012936;28;20807;-71
2022/08/11 02:35:31;;;;;;;0.70;0.13;;;22.50;99.90;;;;;;5012698;28;20451;-71
2022/08/11 02:38:12;;;;;;;0.70;0.10;;;22.40;99.90;;;;;;5012867;28;20631;-71
2022/08/11 02:40:50;;;;;;;0.70;0.10;;;22.40;99.90;;;;;;5012782;28;20488;-71
2022/08/11 02:43:28;;;;;;;0.70;0.30;;;22.30;99.90;;;;;;5012773;28;20449;-71
2022/08/11 02:46:06;;;;;;;0.70;0.20;;;22.30;99.90;;;;;;5012969;28;20452;-71
2022/08/11 02:51:52;;;;;;;0.70;0.20;;;22.30;99.90;;;;;;5013301;28;20449;-71
2022/08/11 02:54:26;;;;;;;0.70;0.20;;;22.20;99.90;;;;;;5012680;28;20476;-71
2022/08/11 02:57:02;;;;;;;0.70;0.10;;;22.20;99.90;;;;;;5012497;28;20450;-71
2022/08/11 02:59:52;;;;;;;0.70;0.20;;;22.20;99.90;;;;;;5012669;28;20448;-71
2022/08/11 03:02:44;;;;;;;0.70;0.10;;;22.10;99.90;;;;;;5012263;28;20562;-71
2022/08/11 03:05:23;;;;;;;0.80;0.53;;;22.10;99.90;;;;;;5012455;28;20448;-71
2022/08/11 03:08:09;;;;;;;0.70;0.10;;;22.10;99.90;;;;;;5012149;28;20441;-71
2022/08/11 03:16:43;;;;;;;0.70;0.10;;;22.10;99.90;;;;;;5011978;28;20451;-71
2022/08/11 03:16:47;;;;;;;2.70;1.00;;;22.10;99.90;;;;;;4982023;28;20463;-71
2022/08/11 03:19:26;;;;;;;0.70;0.20;;;22.00;99.90;;;;;;5010321;28;20444;-72
2022/08/11 03:22:09;;;;;;;0.70;0.20;;;22.00;99.90;;;;;;5012857;28;20447;-71
2022/08/11 03:24:58;;;;;;;0.70;0.37;;;22.00;99.90;;;;;;5013676;28;20473;-71
2022/08/11 03:27:36;;;;;;;0.70;0.17;;;22.00;99.90;;;;;;5012608;28;20456;-71
2022/08/11 03:30:14;;;;;;;0.70;0.20;;;22.00;99.90;;;;;;5013493;28;21043;-71
2022/08/11 03:35:40;;;;;;;0.70;0.20;;;22.00;99.90;;;;;;5012019;28;20531;-71
2022/08/11 03:38:14;;;;;;;0.70;0.10;;;22.00;99.90;;;;;;5012868;28;20436;-71
2022/08/11 03:44:43;;;;;;;0.70;0.10;;;21.90;99.90;;;;;;4974454;28;20461;-71
2022/08/11 03:47:31;;;;;;;0.70;0.20;;;21.90;99.90;;;;;;5012769;28;20451;-71
2022/08/11 03:50:10;;;;;;;0.70;0.10;;;21.90;99.90;;;;;;5011784;28;20440;-72
2022/08/11 03:52:49;;;;;;;0.70;0.10;;;21.90;99.90;;;;;;5012475;28;20470;-71
2022/08/11 03:55:30;;;;;;;0.70;0.10;;;21.90;99.90;;;;;;5011989;28;20476;-71
2022/08/11 03:58:30;;;;;;;0.80;0.37;;;21.80;99.90;;;;;;5011734;28;20866;-72
2022/08/11 04:01:34;;;;;;;0.70;0.40;;;21.80;99.90;;;;;;5012086;28;20451;-71
2022/08/11 04:04:37;;;;;;;0.70;0.17;;;21.80;99.90;;;;;;5012148;28;20460;-72
2022/08/11 04:07:57;;;;;;;0.70;0.10;;;21.70;99.90;;;;;;5010873;28;20964;-71
2022/08/11 04:10:57;;;;;;;0.70;0.20;;;21.70;99.90;;;;;;4997748;28;20445;-71
2022/08/11 04:16:53;;;;;;;0.70;0.10;;;21.60;99.90;;;;;;5008297;28;20467;-71
2022/08/11 04:20:14;;;;;;;0.70;0.10;;;21.50;99.90;;;;;;5010456;28;20463;-71
2022/08/11 04:23:02;;;;;;;0.70;0.20;;;21.50;99.90;;;;;;4947481;29;20483;-70
2022/08/11 04:25:49;;;;;;;0.70;0.20;;;21.50;99.90;;;;;;4944044;29;20461;-70
2022/08/11 04:28:49;;;;;;;0.70;0.20;;;21.40;99.90;;;;;;5005715;28;20506;-70
2022/08/11 04:31:33;;;;;;;0.70;0.10;;;21.40;99.90;;;;;;5011415;28;20491;-70
2022/08/11 04:34:47;;;;;;;4.20;0.73;;;21.30;99.90;;;;;;5015557;28;20847;-70
2022/08/11 04:37:47;;;;;;;0.70;0.20;;;21.30;99.90;;;;;;5015805;28;20444;-70
2022/08/11 04:41:13;;;;;;;0.87;0.50;;;21.30;99.90;;;;;;5015374;28;20842;-71
2022/08/11 04:44:17;;;;;;;0.70;0.20;;;21.30;99.90;;;;;;5011933;28;20998;-70
2022/08/11 04:47:09;;;;;;;0.70;0.10;;;21.20;99.90;;;;;;5015151;28;20928;-71
2022/08/11 05:03:11;;;;;;;0.70;0.20;;;21.50;99.90;;;;;;4999359;28;20448;-70
2022/08/11 05:06:01;;;;;;;0.80;0.40;;;21.50;99.90;;;;;;5013890;28;20470;-70
2022/08/11 05:09:06;;;;;;;0.70;0.20;;;21.50;99.90;;;;;;5013309;28;20467;-70
2022/08/11 05:12:04;;;;;;;0.70;0.10;;;21.50;99.90;;;;;;4965332;28;20505;-70
2022/08/11 05:34:53;;;;;;;0.70;0.20;;;21.80;99.90;;;;;;5161389;27;20442;-76
2022/08/11 05:37:31;;;;;;;0.70;0.20;;;21.80;99.90;;;;;;5166651;27;20497;-73
2022/08/11 05:57:09;;;;;;;0.70;0.10;;;21.90;99.90;;;;;;5150074;27;20461;-75
2022/08/11 06:00:00;;;;;;;0.70;0.17;;;21.90;99.90;;;;;;5160501;27;20439;-74
2022/08/11 06:02:28;;;;;;;1.10;0.83;;;22.10;99.90;;;;;;5163885;27;20468;-72
2022/08/11 06:05:00;;;;;;;2.63;2.43;;;22.20;99.90;;;;;;5160333;27;20908;-73
2022/08/11 06:07:30;;;;;;;0.70;0.30;;;22.20;99.90;;;;;;5161411;27;20458;-72
2022/08/11 06:10:27;;;;;;;0.70;0.20;;;22.20;99.90;;;;;;5147489;27;21007;-72
2022/08/11 06:12:57;;;;;;;1.63;1.33;;;22.20;99.90;;;;;;5149711;27;20461;-71
2022/08/11 06:15:26;;;;;;;0.70;0.30;;;22.10;99.90;;;;;;5149016;27;20786;-72
2022/08/11 06:17:55;;;;;;;0.80;0.50;;;22.10;99.90;;;;;;5149412;27;20448;-73
2022/08/11 06:20:25;;;;;;;0.80;0.27;;;22.10;99.90;;;;;;5151448;27;20438;-74
2022/08/11 06:22:58;;;;;;;0.70;0.20;;;22.10;99.90;;;;;;5151636;27;20502;-72
2022/08/11 06:25:31;;;;;;;0.70;0.30;;;22.10;99.90;;;;;;5150225;27;20444;-72
2022/08/11 06:28:00;;;;;;;0.70;0.20;;;22.10;99.90;;;;;;5150355;27;20532;-73
2022/08/11 06:30:38;;;;;;;0.70;0.20;;;22.20;99.90;;;;;;5150256;27;20478;-72
2022/08/11 06:33:09;;;;;;;0.70;0.10;;;22.20;99.90;;;;;;5142871;27;20458;-72
2022/08/11 06:35:56;;;;;;;0.70;0.20;;;22.20;99.90;;;;;;5149946;27;20540;-72
2022/08/11 06:38:41;;;;;;;0.70;0.10;;;22.20;99.90;;;;;;5149200;27;20441;-72
2022/08/11 06:41:32;;;;;;;0.70;0.20;;;22.30;99.90;;;;;;5153104;27;20445;-72
2022/08/11 06:44:15;;;;;;;0.70;0.10;;;22.40;99.90;;;;;;5156400;27;20514;-70
2022/08/11 06:46:46;;;;;;;0.70;0.20;;;22.40;99.90;;;;;;5156178;27;20441;-70
2022/08/11 06:52:07;;;;;;;0.70;0.10;;;22.50;99.90;;;;;;5143811;27;20996;-71
2022/08/11 06:55:05;;;;;;;0.70;0.20;;;22.60;99.90;;;;;;5135179;27;20809;-72
2022/08/11 07:00:30;;;;;;;0.70;0.20;;;22.60;99.90;;;;;;5139714;27;20438;-71
2022/08/11 07:03:07;;;;;;;0.70;0.20;;;22.70;99.90;;;;;;5155335;27;20967;-71
2022/08/11 07:05:44;;;;;;;0.70;0.20;;;22.80;99.90;;;;;;5155708;27;20409;-70
2022/08/11 07:17:48;;;;;;;0.70;0.20;;;22.90;99.90;;;;;;5071199;28;20445;-70
2022/08/11 07:28:57;;;;;;;0.70;0.20;;;23.10;99.90;;;;;;5135381;27;20450;-70
2022/08/11 07:31:32;;;;;;;0.70;0.20;;;23.30;99.90;;;;;;5137558;27;20474;-70
2022/08/11 07:34:11;;;;;;;0.70;0.20;;;23.30;99.90;;;;;;5134427;27;20886;-70
2022/08/11 07:36:49;;;;;;;0.70;0.20;;;23.30;99.90;;;;;;5134559;27;20466;-71
2022/08/11 07:39:21;;;;;;;0.70;0.10;;;23.40;99.90;;;;;;5134173;27;20538;-71
2022/08/11 07:41:52;;;;;;;0.70;0.20;;;23.50;99.90;;;;;;5150485;27;20456;-70
2022/08/11 07:44:24;;;;;;;0.70;0.20;;;23.40;99.90;;;;;;5153466;27;20458;-71
2022/08/11 07:52:39;;;;;;;0.70;0.17;;;23.80;99.90;;;;;;5117824;27;20475;-72
2022/08/11 07:55:12;;;;;;;0.73;0.27;;;23.80;99.90;;;;;;5130708;27;21200;-70
2022/08/11 08:17:56;;;;;;;0.70;0.13;;;24.60;99.90;;;;;;5133864;27;20438;-70
2022/08/11 08:20:48;;;;;;;0.70;0.10;;;24.50;99.90;;;;;;5133217;27;20843;-71
2022/08/11 08:23:31;;;;;;;0.70;0.10;;;24.60;99.90;;;;;;5112989;28;20460;-69
2022/08/11 08:26:00;;;;;;;0.70;0.20;;;24.70;99.90;;;;;;5113097;28;20496;-71
2022/08/11 08:28:29;;;;;;;0.70;0.10;;;24.80;99.90;;;;;;5118350;27;20445;-71
2022/08/11 08:31:00;;;;;;;0.70;0.20;;;24.90;99.90;;;;;;5133394;27;20486;-71
2022/08/11 08:33:30;;;;;;;0.70;0.20;;;25.00;99.90;;;;;;5133303;27;20554;-71
2022/08/11 08:36:11;;;;;;;0.70;0.20;;;25.00;99.90;;;;;;5134040;27;20446;-72
2022/08/11 08:38:41;;;;;;;0.70;0.20;;;25.10;99.90;;;;;;5135073;27;20443;-71
2022/08/11 08:41:11;;;;;;;0.80;0.40;;;25.20;99.90;;;;;;5153829;27;20446;-70
2022/08/11 08:43:43;;;;;;;1.10;1.00;;;25.20;99.90;;;;;;5153947;27;20473;-71
2022/08/11 08:46:22;;;;;;;0.70;0.20;;;25.30;99.90;;;;;;5154324;27;20524;-71
2022/08/11 08:48:50;;;;;;;0.70;0.30;;;25.30;99.90;;;;;;5153690;27;20438;-71
2022/08/11 08:51:36;;;;;;;0.80;0.30;;;25.40;99.90;;;;;;5153011;27;21026;-71
2022/08/11 08:54:30;;;;;;;0.70;0.20;;;25.50;99.90;;;;;;5153889;27;20491;-71
2022/08/11 08:57:01;;;;;;;0.70;0.20;;;25.50;99.90;;;;;;5153718;27;20438;-72
2022/08/11 08:59:29;;;;;;;0.70;0.20;;;25.60;99.90;;;;;;5153378;27;20442;-71
2022/08/11 09:02:19;;;;;;;0.70;0.20;;;25.80;99.90;;;;;;5112154;28;20444;-72
2022/08/11 09:05:02;;;;;;;0.70;0.10;;;25.70;99.90;;;;;;5111988;28;20864;-71
2022/08/11 09:07:31;;;;;;;0.70;0.10;;;25.80;99.90;;;;;;5112421;28;20447;-70
2022/08/11 09:10:08;;;;;;;0.70;0.20;;;25.90;99.90;;;;;;5118266;27;20451;-70
2022/08/11 09:12:40;;;;;;;0.70;0.20;;;26.00;99.90;;;;;;5133078;27;20509;-70
2022/08/11 09:15:10;;;;;;;0.70;0.20;;;26.00;99.90;;;;;;5133000;27;20435;-70
2022/08/11 09:17:48;;;;;;;0.70;0.20;;;26.10;99.90;;;;;;5134640;27;20435;-72
2022/08/11 09:20:19;;;;;;;0.70;0.20;;;26.20;99.90;;;;;;5137073;27;20523;-70
2022/08/11 09:28:45;;;;;;;0.70;0.20;;;26.40;99.90;;;;;;5120086;28;20446;-71
2022/08/11 09:31:14;;;;;;;0.70;0.20;;;26.50;99.90;;;;;;5133428;27;20489;-71
2022/08/11 09:33:45;;;;;;;0.70;0.30;;;26.70;99.90;;;;;;5132619;28;20482;-71
2022/08/11 09:41:47;;;;;;;0.70;0.17;;;26.90;99.90;;;;;;5153263;27;20529;-71
2022/08/11 09:47:22;;;;;;;0.70;0.20;;;27.10;99.90;;;;;;5153062;27;20842;-74
2022/08/11 09:49:59;;;;;;;0.70;0.20;;;27.10;99.90;;;;;;5153631;27;20433;-74
2022/08/11 09:52:32;;;;;;;0.70;0.20;;;27.10;99.90;;;;;;5153377;27;20478;-74
2022/08/11 09:55:00;;;;;;;0.70;0.20;;;27.20;99.90;;;;;;5153517;27;20433;-75
2022/08/11 10:00:16;;;;;;;0.70;0.10;;;27.40;99.90;;;;;;5153736;27;20430;-75
2022/08/11 10:02:48;;;;;;;0.70;0.20;;;27.60;99.90;;;;;;5154208;27;20458;-75
2022/08/11 10:08:07;;;;;;;0.70;0.10;;;27.70;99.90;;;;;;5154179;27;20434;-74
2022/08/11 10:10:39;;;;;;;0.70;0.20;;;27.80;99.90;;;;;;5153068;27;21060;-74
2022/08/11 10:13:10;;;;;;;0.70;0.20;;;28.00;99.90;;;;;;5153379;27;20486;-73
2022/08/11 10:16:01;;;;;;;0.70;0.20;;;28.10;99.90;;;;;;5153728;27;20437;-73
2022/08/11 10:18:51;;;;;;;0.70;0.10;;;28.30;99.90;;;;;;5157056;27;20521;-74
2022/08/11 10:21:37;;;;;;;0.70;0.20;;;28.50;99.90;;;;;;5157040;27;20441;-72
2022/08/11 10:26:57;;;;;;;0.70;0.20;;;28.80;99.90;;;;;;5157004;27;20422;-71
2022/08/11 10:35:25;;;;;;;0.70;0.10;;;28.80;99.90;;;;;;5156912;27;20422;-74
2022/08/11 10:37:56;;;;;;;0.80;0.30;;;28.80;99.90;;;;;;5156021;27;20865;-72
2022/08/11 10:40:38;;;;;;;0.70;0.20;;;28.80;99.90;;;;;;5157076;27;20430;-75
2022/08/11 10:43:12;;;;;;;0.70;0.10;;;28.80;99.90;;;;;;5153595;27;20497;-74
2022/08/11 10:48:31;;;;;;;0.70;0.20;;;28.60;99.90;;;;;;5146115;27;20450;-73
2022/08/11 10:51:16;;;;;;;1.83;1.73;;;28.60;99.90;;;;;;5156486;27;20788;-74
2022/08/11 10:59:41;;;;;;;0.70;0.20;;;28.70;99.90;;;;;;5155995;27;20511;-74
2022/08/11 11:02:13;;;;;;;0.70;0.20;;;28.80;99.90;;;;;;5156597;27;20445;-73
2022/08/11 11:04:56;;;;;;;0.70;0.17;;;28.80;99.90;;;;;;5156093;27;20446;-75
2022/08/11 11:07:35;;;;;;;0.70;0.30;;;28.90;99.90;;;;;;5155469;27;20438;-74
2022/08/11 11:10:12;;;;;;;1.10;0.67;;;28.90;99.90;;;;;;5114620;28;20440;-74
2022/08/11 11:18:29;;;;;;;0.70;0.13;;;29.10;99.90;;;;;;5131366;27;20435;-73
2022/08/11 11:21:03;;;;;;;0.70;0.20;;;29.10;99.90;;;;;;5154031;27;20477;-74
2022/08/11 11:23:38;;;;;;;1.00;0.80;;;29.20;99.90;;;;;;5135288;27;20472;-73
2022/08/11 11:26:37;;;;;;;1.47;1.00;;;29.30;99.90;;;;;;5138528;27;20556;-75
2022/08/11 11:29:32;;;;;;;0.70;0.30;;;29.30;99.90;;;;;;5134636;27;20447;-74
2022/08/11 11:32:15;;;;;;;0.70;0.17;;;29.20;99.90;;;;;;5132488;27;20443;-74
2022/08/11 11:35:04;;;;;;;0.70;0.20;;;29.20;99.90;;;;;;5135499;27;20447;-73
2022/08/11 11:37:34;;;;;;;0.70;0.20;;;29.40;99.90;;;;;;5114261;28;20444;-73
2022/08/11 11:40:09;;;;;;;1.10;0.60;;;29.40;99.90;;;;;;5114757;28;20521;-73
2022/08/11 11:42:40;;;;;;;0.70;0.20;;;29.40;99.90;;;;;;5114474;28;20458;-74
2022/08/11 11:45:10;;;;;;;0.70;0.20;;;29.40;99.90;;;;;;5118390;27;20439;-75
2022/08/11 11:47:53;;;;;;;0.70;0.20;;;29.50;99.90;;;;;;5155794;27;20447;-75
2022/08/11 11:50:24;;;;;;;0.80;0.50;;;29.50;99.90;;;;;;5155513;27;20438;-74
2022/08/11 11:53:00;;;;;;;0.93;0.57;;;29.40;99.90;;;;;;5155325;27;20975;-74
2022/08/11 11:55:29;;;;;;;0.70;0.30;;;29.40;99.90;;;;;;5136610;27;20821;-73
2022/08/11 12:03:37;;;;;;;0.70;0.20;;;29.50;99.90;;;;;;5136202;27;20462;-74
2022/08/11 12:06:07;;;;;;;0.70;0.23;;;29.50;99.90;;;;;;5135053;27;20438;-75
2022/08/11 12:08:37;;;;;;;0.70;0.20;;;29.60;99.90;;;;;;5135171;27;20439;-75
2022/08/11 12:13:58;;;;;;;0.70;0.20;;;29.80;99.90;;;;;;5135223;27;21013;-74
2022/08/11 12:16:27;;;;;;;0.70;0.10;;;29.80;99.90;;;;;;5134094;27;20443;-75
2022/08/11 12:19:06;;;;;;;0.70;0.20;;;29.90;99.90;;;;;;5134376;27;20492;-74
2022/08/11 12:21:35;;;;;;;1.07;0.53;;;30.00;99.90;;;;;;5132684;27;20527;-73
2022/08/11 12:29:48;;;;;;;0.70;0.20;;;30.00;99.90;;;;;;5133852;27;20522;-75
2022/08/11 12:32:24;;;;;;;2.13;1.93;;;30.10;99.90;;;;;;5134322;27;20435;-73
2022/08/11 12:34:52;;;;;;;1.20;0.50;;;30.10;99.90;;;;;;5134630;27;20497;-75
2022/08/11 12:37:25;;;;;;;0.70;0.20;;;30.10;99.90;;;;;;5134481;27;20817;-74
2022/08/11 12:46:09;;;;;;;1.00;0.53;;;30.20;99.90;;;;;;5128412;27;20446;-76
2022/08/11 12:54:57;;;;;;;0.70;0.20;;;30.00;99.90;;;;;;5133841;27;20462;-75
2022/08/11 13:05:56;;;;;;;0.70;0.10;;;30.20;99.90;;;;;;5133475;27;21062;-74
2022/08/11 13:08:28;;;;;;;1.20;0.80;;;30.30;99.90;;;;;;5133535;27;20439;-73
2022/08/11 13:13:46;;;;;;;0.70;0.17;;;30.20;99.90;;;;;;5140356;27;20812;-74
2022/08/11 13:16:26;;;;;;;0.70;0.30;;;30.20;99.90;;;;;;5153651;27;20533;-74
2022/08/11 13:18:57;;;;;;;0.70;0.20;;;30.30;99.90;;;;;;5153672;27;20442;-74
2022/08/11 13:21:27;;;;;;;1.67;0.87;;;30.40;99.90;;;;;;5138762;27;20486;-75
2022/08/11 13:23:59;;;;;;;0.70;0.33;;;30.50;99.90;;;;;;5133927;27;20462;-76
2022/08/11 13:26:33;;;;;;;1.03;0.47;;;30.50;99.90;;;;;;5133326;27;20442;-73
2022/08/11 13:29:17;;;;;;;0.70;0.20;;;30.50;99.90;;;;;;5132947;27;20866;-72
2022/08/11 13:31:46;;;;;;;0.70;0.20;;;30.50;99.90;;;;;;5132882;28;20449;-75
2022/08/11 13:34:19;;;;;;;0.70;0.20;;;30.60;99.90;;;;;;5134049;27;20486;-73
2022/08/11 13:36:54;;;;;;;0.70;0.20;;;;;;;;;;5133585;28;20465;-75
2022/08/11 13:39:25;;;;;;;0.70;0.20;;;30.70;99.90;;;;;;5134948;28;20883;-76
2022/08/11 13:41:58;;;;;;;0.70;0.30;;;30.80;99.90;;;;;;5121331;28;20788;-75
2022/08/11 13:44:29;;;;;;;1.10;0.93;;;30.80;99.90;;;;;;5131319;27;20463;-75
2022/08/11 13:47:01;;;;;;;0.80;0.37;;;30.80;99.90;;;;;;5132985;28;20435;-75
2022/08/11 13:49:31;;;;;;;0.70;0.20;;;30.80;99.90;;;;;;5129847;28;20506;-74
2022/08/11 13:52:00;;;;;;;0.70;0.20;;;30.80;99.90;;;;;;5133150;27;20431;-74
2022/08/11 13:54:31;;;;;;;0.80;0.60;;;30.80;99.90;;;;;;5151243;27;20480;-75
2022/08/11 13:57:04;;;;;;;0.70;0.20;;;30.90;99.90;;;;;;5150174;27;20430;-76
2022/08/11 13:59:36;;;;;;;1.40;1.30;;;30.90;99.90;;;;;;5137252;27;20430;-75
2022/08/11 14:02:23;;;;;;;0.80;0.40;;;31.10;99.90;;;;;;5136330;27;20822;-75
2022/08/11 14:05:02;;;;;;;1.10;0.80;;;31.00;99.90;;;;;;5136396;27;20453;-76
2022/08/11 14:07:35;;;;;;;0.70;0.20;;;31.00;99.90;;;;;;5136930;27;20455;-75
2022/08/11 14:10:06;;;;;;;0.70;0.20;;;31.10;99.90;;;;;;5134317;27;20968;-75
2022/08/11 14:15:25;;;;;;;0.70;0.17;;;30.90;99.90;;;;;;5127158;27;21041;-75
2022/08/11 14:18:01;;;;;;;0.70;0.20;;;31.00;99.90;;;;;;5157556;27;20437;-74
2022/08/11 14:22:05;;;;;;;0.70;0.17;;;31.10;99.90;;;;;;5157767;27;20528;-74
2022/08/11 14:23:27;;;;;;;1.43;0.37;;;31.20;99.90;;;;;;5159478;27;20465;-77
2022/08/11 14:28:42;;;;;;;0.70;0.20;;;31.40;99.90;;;;;;5152746;27;20475;-78
2022/08/11 14:31:14;;;;;;;0.70;0.20;;;31.40;99.90;;;;;;5140505;27;20454;-78
2022/08/11 14:33:43;;;;;;;0.70;0.20;;;31.50;99.90;;;;;;5142185;27;20462;-78
2022/08/11 14:36:35;;;;;;;0.70;0.20;;;31.70;99.90;;;;;;5139073;27;20434;-78
2022/08/11 14:39:06;;;;;;;0.70;0.20;;;31.90;99.90;;;;;;5139609;27;20448;-77
2022/08/11 14:47:32;;;;;;;0.70;0.20;;;32.00;99.90;;;;;;5140666;27;20546;-77
2022/08/11 14:50:02;;;;;;;1.70;1.60;;;32.00;99.90;;;;;;5148908;27;20451;-76
2022/08/11 14:52:45;;;;;;;0.70;0.20;;;32.00;99.90;;;;;;5151359;27;20495;-78
2022/08/11 14:58:01;;;;;;;0.70;0.20;;;32.10;99.90;;;;;;5151863;27;20439;-77
2022/08/11 15:00:30;;;;;;;0.80;0.27;;;32.00;99.90;;;;;;5150648;27;20435;-78
2022/08/11 15:03:11;;;;;;;0.70;0.30;;;32.10;99.90;;;;;;5157361;27;20466;-78
2022/08/11 15:05:46;;;;;;;0.70;0.20;;;32.00;99.90;;;;;;5170580;27;20471;-78
2022/08/11 15:14:04;;;;;;;0.70;0.20;;;32.20;99.90;;;;;;5117263;28;20793;-78
2022/08/11 15:19:20;;;;;;;0.90;0.50;;;32.10;99.90;;;;;;5122884;27;20434;-78
2022/08/11 15:24:37;;;;;;;0.70;0.20;;;32.10;99.90;;;;;;5153139;27;20443;-80
2022/08/11 15:38:34;;;;;;;0.77;0.30;;;32.50;99.90;;;;;;5129937;27;20467;-78
2022/08/11 15:46:46;;;;;;;0.70;0.17;;;32.50;99.90;;;;;;5148216;27;20995;-78
2022/08/11 15:49:20;;;;;;;0.70;0.20;;;32.60;99.90;;;;;;5144144;27;20453;-80
2022/08/11 15:51:57;;;;;;;0.70;0.10;;;32.90;99.90;;;;;;5147383;27;20482;-78
2022/08/11 15:54:32;;;;;;;0.70;0.20;;;33.00;99.90;;;;;;5152335;27;20576;-78
2022/08/11 15:57:04;;;;;;;0.70;0.20;;;33.10;99.90;;;;;;5160130;27;20466;-79
2022/08/11 16:05:16;;;;;;;0.70;0.20;;;33.40;99.90;;;;;;5140381;27;20442;-79
2022/08/11 16:08:05;;;;;;;0.70;0.20;;;33.30;99.90;;;;;;5136858;27;20442;-79
2022/08/11 16:10:36;;;;;;;0.70;0.17;;;33.20;99.90;;;;;;5138657;27;20493;-77
2022/08/11 16:16:17;;;;;;;0.70;0.20;;;33.10;99.90;;;;;;5138502;27;20478;-79
2022/08/11 16:18:51;;;;;;;0.70;0.23;;;33.20;99.90;;;;;;5140450;27;20419;-78
2022/08/11 16:21:25;;;;;;;0.70;0.20;;;33.20;99.90;;;;;;5139082;27;20453;-76
2022/08/11 16:24:06;;;;;;;0.70;0.20;;;33.40;99.90;;;;;;5138017;27;20493;-78
2022/08/11 16:26:37;;;;;;;0.70;0.17;;;33.30;99.90;;;;;;5138709;27;20522;-77
2022/08/11 16:29:37;;;;;;;1.13;0.70;;;33.30;99.90;;;;;;5135806;27;20499;-78
2022/08/11 16:32:20;;;;;;;0.70;0.20;;;33.30;99.90;;;;;;5145892;27;20894;-78
2022/08/11 16:40:28;;;;;;;0.70;0.20;;;;;;;;;;5134877;27;20446;-76
2022/08/11 16:48:34;;;;;;;0.70;0.20;;;33.30;99.90;;;;;;5155664;27;21117;-77
2022/08/11 16:51:06;;;;;;;0.70;0.20;;;33.40;99.90;;;;;;5155639;27;20438;-79
2022/08/11 16:53:37;;;;;;;0.70;0.20;;;33.40;99.90;;;;;;5113454;28;20485;-77
2022/08/11 16:56:28;;;;;;;0.70;0.20;;;33.40;99.90;;;;;;5114255;28;20467;-79
2022/08/11 16:59:13;;;;;;;0.70;0.23;;;33.40;99.90;;;;;;5113767;28;20432;-78
2022/08/11 17:01:48;;;;;;;0.70;0.30;;;33.40;99.90;;;;;;5120744;27;20488;-79
2022/08/11 17:13:24;;;;;;;0.70;0.20;;;34.10;99.90;;;;;;5160972;27;20469;-77
2022/08/11 17:16:10;;;;;;;0.70;0.20;;;34.20;99.90;;;;;;5170310;27;20497;-80
2022/08/11 17:18:44;;;;;;;0.87;0.30;;;34.70;99.90;;;;;;5156058;27;20439;-80
2022/08/11 17:21:16;;;;;;;0.70;0.20;;;34.70;99.90;;;;;;5147942;27;20444;-81
2022/08/11 17:23:46;;;;;;;0.70;0.20;;;34.80;99.90;;;;;;5148955;27;20491;-81
2022/08/11 17:26:18;;;;;;;0.70;0.20;;;34.90;99.90;;;;;;5147316;27;20441;-80
2022/08/11 17:28:51;;;;;;;0.70;0.20;;;35.30;99.90;;;;;;5155269;27;20847;-79
2022/08/11 17:36:55;;;;;;;0.70;0.20;;;37.20;99.90;;;;;;5165225;27;20475;-80
2022/08/11 17:39:29;;;;;;;0.70;0.20;;;37.20;99.90;;;;;;5153621;28;20411;-81
2022/08/11 17:50:22;;;;;;;0.70;0.30;;;38.30;99.90;;;;;;5135806;28;20455;-79
2022/08/11 18:01:12;;;;;;;0.70;0.20;;;38.60;99.90;;;;;;5162386;27;20447;-80
2022/08/11 18:03:41;;;;;;;0.70;0.20;;;38.30;99.90;;;;;;5095717;27;20549;-78
2022/08/11 18:06:28;;;;;;;0.70;0.20;;;38.20;99.90;;;;;;5093028;28;20453;-78
